Time;durP1;ratioP1;P1;durP2;ratioP2;P2;SDS_P1;SDS_P2;PMS_P1;PMS_P2;Temp;Humidity;BMP_temperature;BMP_pressure;BME280_temperature;BME280_humidity;BME280_pressure;Samples;Min_cycle;Max_cycle;Signal;HPM_P1;HPM_P2
2022/09/30 00:00:46;;;;;;;1999.90;999.90;;;;;;;8.85;100.00;93739.53;6260898;22;20321;-69
2022/09/30 00:03:12;;;;;;;1999.90;999.90;;;;;;;8.79;100.00;93746.72;6260665;22;20163;-69
2022/09/30 00:05:37;;;;;;;1999.90;999.90;;;;;;;8.78;100.00;93737.00;6261284;22;20155;-69
2022/09/30 00:08:03;;;;;;;1999.90;999.90;;;;;;;8.78;100.00;93738.97;6261508;22;20188;-69
2022/09/30 00:10:28;;;;;;;1999.90;999.90;;;;;;;8.77;100.00;93740.94;6261354;22;20228;-69
2022/09/30 00:12:54;;;;;;;1999.90;999.90;;;;;;;8.73;100.00;93743.00;6260708;22;20179;-69
2022/09/30 00:15:19;;;;;;;1999.90;999.90;;;;;;;8.78;100.00;93744.44;6261081;22;20189;-70
2022/09/30 00:17:44;;;;;;;1999.90;999.90;;;;;;;8.73;100.00;93753.88;6260752;22;20178;-70
2022/09/30 00:20:10;;;;;;;1999.90;999.90;;;;;;;8.74;100.00;93755.41;6286504;22;20163;-69
2022/09/30 00:22:35;;;;;;;1999.90;999.90;;;;;;;8.73;100.00;93759.31;6260442;22;20172;-68
2022/09/30 00:25:01;;;;;;;1999.90;999.90;;;;;;;8.74;100.00;93766.28;6260676;22;20192;-67
2022/09/30 00:27:27;;;;;;;1999.90;999.90;;;;;;;8.75;100.00;93754.19;6260464;22;20178;-69
2022/09/30 00:29:52;;;;;;;1999.90;999.90;;;;;;;8.71;100.00;93750.81;6260321;22;20167;-68
2022/09/30 00:32:18;;;;;;;1999.90;999.90;;;;;;;8.72;100.00;93757.03;6260577;22;20178;-67
2022/09/30 00:34:43;;;;;;;1999.90;999.90;;;;;;;8.72;100.00;93746.91;6286980;22;20202;-68
2022/09/30 00:37:10;;;;;;;1999.90;999.90;;;;;;;8.78;100.00;93750.63;6260401;22;20372;-70
2022/09/30 00:39:36;;;;;;;1999.90;999.90;;;;;;;8.79;100.00;93745.94;6260972;22;20186;-69
2022/09/30 00:42:05;;;;;;;1999.90;999.90;;;;;;;8.81;100.00;93741.59;6261203;22;20167;-68
2022/09/30 00:44:52;;;;;;;1999.90;999.90;;;;;;;8.82;100.00;93737.66;6261170;22;20188;-70
2022/09/30 00:47:32;;;;;;;1999.90;999.90;;;;;;;8.81;100.00;93744.31;6286397;22;20174;-69
2022/09/30 00:50:24;;;;;;;1999.90;999.90;;;;;;;8.80;100.00;93745.53;6261104;22;20498;-72
2022/09/30 00:53:19;;;;;;;1999.90;999.90;;;;;;;8.78;100.00;93747.91;6247701;22;20175;-72
2022/09/30 00:55:58;;;;;;;1999.90;999.90;;;;;;;8.75;100.00;93746.03;6260867;22;20179;-69
2022/09/30 00:58:32;;;;;;;1999.90;999.90;;;;;;;8.70;100.00;93749.28;6260558;22;20202;-70
2022/09/30 01:01:00;;;;;;;1999.90;999.90;;;;;;;8.65;100.00;93755.28;6286169;22;20185;-70
2022/09/30 01:03:29;;;;;;;1999.90;999.90;;;;;;;8.61;100.00;93767.44;6260634;22;20168;-71
2022/09/30 01:05:55;;;;;;;1999.90;999.90;;;;;;;8.55;100.00;93775.38;6260466;22;20166;-72
2022/09/30 01:08:22;;;;;;;1999.90;999.90;;;;;;;8.57;100.00;93778.44;6260604;22;20215;-71
2022/09/30 01:10:47;;;;;;;1999.90;999.90;;;;;;;8.53;100.00;93783.19;6260662;22;20167;-72
2022/09/30 01:13:16;;;;;;;1999.90;999.90;;;;;;;8.56;100.00;93785.03;6260512;22;20225;-72
2022/09/30 01:15:44;;;;;;;1999.90;999.90;;;;;;;8.51;100.00;93782.84;6260732;22;20177;-71
2022/09/30 01:18:37;;;;;;;1999.90;999.90;;;;;;;8.53;100.00;93774.28;6286243;22;20178;-72
2022/09/30 01:21:24;;;;;;;1999.90;999.90;;;;;;;8.55;100.00;93774.59;6260693;22;20187;-70
2022/09/30 01:24:16;;;;;;;1999.90;999.90;;;;;;;8.58;100.00;93784.63;6260207;22;20194;-71
2022/09/30 01:26:41;;;;;;;1999.90;999.90;;;;;;;8.48;100.00;93793.81;6260979;22;20171;-71
2022/09/30 01:30:01;;;;;;;1999.90;999.90;;;;;;;8.52;100.00;93776.22;6286534;22;20175;-71
2022/09/30 01:32:53;;;;;;;1999.90;999.90;;;;;;;8.55;100.00;93778.09;6243343;22;20173;-69
2022/09/30 01:35:28;;;;;;;1999.90;999.90;;;;;;;8.54;100.00;93798.31;6261041;22;20207;-68
2022/09/30 01:38:08;;;;;;;1999.90;999.90;;;;;;;8.56;100.00;93797.91;6285322;22;20179;-71
2022/09/30 01:40:59;;;;;;;1999.90;999.90;;;;;;;8.62;100.00;93812.50;6260412;22;20170;-69
2022/09/30 01:43:47;;;;;;;1999.90;999.90;;;;;;;8.63;100.00;93809.34;6251939;22;20166;-71
2022/09/30 01:46:13;;;;;;;1999.90;999.90;;;;;;;8.68;100.00;93819.72;6260156;22;20175;-71
2022/09/30 01:49:11;;;;;;;1999.90;999.90;;;;;;;8.73;100.00;93807.53;6285706;22;20171;-70
2022/09/30 01:51:39;;;;;;;1999.90;999.90;;;;;;;8.76;100.00;93810.16;6260737;22;20175;-72
2022/09/30 01:54:16;;;;;;;1999.90;999.90;;;;;;;8.80;100.00;93813.56;6286307;22;20194;-72
2022/09/30 01:56:46;;;;;;;1999.90;999.90;;;;;;;8.81;100.00;93806.91;6260188;22;20526;-69
2022/09/30 01:59:26;;;;;;;1999.90;999.90;;;;;;;8.81;100.00;93804.19;6260043;22;20167;-70
2022/09/30 02:01:57;;;;;;;1999.90;999.90;;;;;;;8.80;100.00;93802.66;6259793;22;20198;-72
2022/09/30 02:04:31;;;;;;;1999.90;999.90;;;;;;;8.81;100.00;93809.63;6260103;22;20172;-71
2022/09/30 02:07:03;;;;;;;1999.90;999.90;;;;;;;8.74;100.00;93815.25;6260794;22;20181;-71
2022/09/30 02:09:41;;;;;;;1999.90;999.90;;;;;;;8.74;100.00;93815.25;6260652;22;20231;-71
2022/09/30 02:12:11;;;;;;;1999.90;999.90;;;;;;;8.74;100.00;93817.97;6260358;22;20175;-71
2022/09/30 02:14:44;;;;;;;1999.90;999.90;;;;;;;8.72;100.00;93814.94;6260346;22;20167;-71
2022/09/30 02:17:19;;;;;;;1999.90;999.90;;;;;;;8.72;100.00;93806.78;6259906;22;20184;-70
2022/09/30 02:19:49;;;;;;;1999.90;999.90;;;;;;;8.72;100.00;93795.91;6260716;22;20178;-70
2022/09/30 02:22:15;;;;;;;1999.90;999.90;;;;;;;8.66;100.00;93803.03;6259969;22;20168;-71
2022/09/30 02:24:42;;;;;;;1999.90;999.90;;;;;;;8.61;100.00;93795.41;6285458;22;20176;-73
2022/09/30 02:27:15;;;;;;;1999.90;999.90;;;;;;;8.63;100.00;93795.75;6259607;22;20172;-72
2022/09/30 02:29:49;;;;;;;1999.90;999.90;;;;;;;8.59;100.00;93791.56;6260313;22;20144;-71
2022/09/30 02:32:30;;;;;;;1999.90;999.90;;;;;;;8.57;100.00;93800.19;6260315;22;20170;-70
2022/09/30 02:35:10;;;;;;;1999.90;999.90;;;;;;;8.52;100.00;93808.88;6260140;22;20166;-73
2022/09/30 02:37:40;;;;;;;1999.90;999.90;;;;;;;8.50;100.00;93800.38;6260157;22;20189;-71
2022/09/30 02:40:20;;;;;;;1999.90;999.90;;;;;;;8.50;100.00;93789.50;6259633;22;20201;-71
2022/09/30 02:42:45;;;;;;;1999.90;999.90;;;;;;;8.50;100.00;93792.22;6259606;22;20167;-71
2022/09/30 02:45:15;;;;;;;1999.90;999.90;;;;;;;8.48;100.00;93797.31;6259727;22;20166;-71
2022/09/30 02:48:10;;;;;;;1999.90;999.90;;;;;;;8.41;100.00;93792.06;6259819;22;20174;-71
2022/09/30 02:50:46;;;;;;;1999.90;999.90;;;;;;;8.44;100.00;93791.19;6259474;22;20186;-72
2022/09/30 02:53:17;;;;;;;1999.90;999.90;;;;;;;8.42;100.00;93798.28;6261132;22;20179;-71
2022/09/30 02:55:55;;;;;;;1999.90;999.90;;;;;;;8.41;100.00;93802.94;6286909;22;20160;-71
2022/09/30 02:58:24;;;;;;;1999.90;999.90;;;;;;;8.39;100.00;93805.34;6286625;22;20208;-72
2022/09/30 03:00:51;;;;;;;1999.90;999.90;;;;;;;8.38;100.00;93814.66;6224678;23;20173;-71
2022/09/30 03:03:22;;;;;;;1999.90;999.90;;;;;;;8.40;100.00;93812.28;6199571;23;20518;-70
2022/09/30 03:05:50;;;;;;;1999.90;999.90;;;;;;;8.40;100.00;93817.72;6225036;23;20166;-72
2022/09/30 03:08:16;;;;;;;1999.90;999.90;;;;;;;8.41;100.00;93824.69;6199811;23;20175;-75
2022/09/30 03:10:43;;;;;;;1999.90;999.90;;;;;;;8.42;100.00;93826.22;6199372;23;20179;-70
2022/09/30 03:13:43;;;;;;;1999.90;999.90;;;;;;;8.41;100.00;93829.38;6199368;23;20174;-71
2022/09/30 03:16:27;;;;;;;1999.90;999.90;;;;;;;8.38;100.00;93835.66;6224465;23;20183;-72
2022/09/30 03:19:13;;;;;;;1999.90;999.90;;;;;;;8.33;100.00;93836.16;6224436;23;20179;-70
2022/09/30 03:22:03;;;;;;;1999.90;999.90;;;;;;;8.31;100.00;93836.59;6224783;23;20223;-70
2022/09/30 03:24:44;;;;;;;1999.90;999.90;;;;;;;8.29;100.00;93830.84;6224994;23;20181;-70
2022/09/30 03:27:25;;;;;;;1999.90;999.90;;;;;;;8.32;100.00;93837.38;6224395;23;20195;-70
2022/09/30 03:30:02;;;;;;;1999.90;999.90;;;;;;;8.34;100.00;93841.19;6224652;23;20179;-69
2022/09/30 03:33:00;;;;;;;1999.90;999.90;;;;;;;8.34;100.00;93841.19;6199995;23;20176;-69
2022/09/30 03:35:47;;;;;;;1999.90;999.90;;;;;;;8.35;100.00;93842.75;6189154;23;20208;-70
2022/09/30 03:38:42;;;;;;;1999.90;999.90;;;;;;;8.35;100.00;93850.91;6245516;22;20238;-72
2022/09/30 03:41:39;;;;;;;1999.90;999.90;;;;;;;8.36;100.00;93857.84;6257913;22;20177;-70
2022/09/30 03:44:14;;;;;;;1999.90;999.90;;;;;;;8.41;100.00;93865.50;6261485;22;20162;-71
2022/09/30 03:46:50;;;;;;;1999.90;999.90;;;;;;;8.43;100.00;93871.28;6286962;22;20171;-70
2022/09/30 03:49:22;;;;;;;1999.90;999.90;;;;;;;8.46;100.00;93870.44;6260880;22;20224;-71
2022/09/30 03:51:47;;;;;;;1999.90;999.90;;;;;;;8.41;100.00;93862.78;6261050;22;20170;-71
2022/09/30 03:54:13;;;;;;;1999.90;999.90;;;;;;;8.45;100.00;93874.31;6260816;22;20164;-70
2022/09/30 03:56:42;;;;;;;1999.90;999.90;;;;;;;8.47;100.00;93871.94;6261102;22;20192;-71
2022/09/30 03:59:29;;;;;;;1999.90;999.90;;;;;;;8.49;100.00;93868.81;6261304;22;20212;-70
2022/09/30 04:01:56;;;;;;;1999.90;999.90;;;;;;;8.49;100.00;93923.97;6260497;22;20170;-71
2022/09/30 04:04:22;;;;;;;1999.90;999.90;;;;;;;8.50;100.00;93930.19;6260716;22;20166;-73
2022/09/30 04:06:47;;;;;;;1999.90;999.90;;;;;;;8.48;100.00;93925.16;6260947;22;20171;-71
2022/09/30 04:09:13;;;;;;;1999.90;999.90;;;;;;;8.48;100.00;93936.03;6261018;22;20178;-69
2022/09/30 04:11:38;;;;;;;1999.90;999.90;;;;;;;8.50;100.00;93936.41;6260902;22;20428;-72
2022/09/30 04:14:04;;;;;;;1999.90;999.90;;;;;;;8.50;100.00;93947.28;6261033;22;20167;-71
2022/09/30 04:16:31;;;;;;;1999.90;999.90;;;;;;;8.51;100.00;93943.34;6261255;22;20343;-70
2022/09/30 04:18:59;;;;;;;1999.90;999.90;;;;;;;8.54;100.00;93953.38;6260939;22;20170;-70
2022/09/30 04:21:27;;;;;;;1999.90;999.90;;;;;;;8.53;100.00;93953.81;6260700;22;20170;-70
2022/09/30 04:23:53;;;;;;;1999.90;999.90;;;;;;;8.44;100.00;93964.50;6260430;22;20198;-71
2022/09/30 04:26:19;;;;;;;1999.90;999.90;;;;;;;8.38;100.00;93949.91;6260505;22;20174;-73
2022/09/30 04:28:45;;;;;;;1999.90;999.90;;;;;;;8.37;100.00;93951.06;6260808;22;20163;-67
2022/09/30 04:31:12;;;;;;;1999.90;999.90;;;;;;;8.34;100.00;93949.97;6260412;22;20178;-70
2022/09/30 04:33:38;;;;;;;1999.90;999.90;;;;;;;8.29;100.00;93955.91;6261378;22;20184;-70
2022/09/30 04:36:04;;;;;;;1999.90;999.90;;;;;;;8.26;100.00;93954.03;6260727;22;20195;-69
2022/09/30 04:38:29;;;;;;;1999.90;999.90;;;;;;;8.23;100.00;93965.00;6260792;22;20179;-73
2022/09/30 04:40:56;;;;;;;1999.90;999.90;;;;;;;8.27;100.00;93961.00;6261053;22;20170;-73
2022/09/30 04:43:22;;;;;;;1999.90;999.90;;;;;;;8.31;100.00;93966.38;6260823;22;20167;-72
2022/09/30 04:45:49;;;;;;;1999.90;999.90;;;;;;;8.32;100.00;93974.13;6260738;22;20482;-70
2022/09/30 04:48:15;;;;;;;1999.90;999.90;;;;;;;8.32;100.00;93985.00;6260796;22;20166;-70
2022/09/30 04:50:41;;;;;;;1999.90;999.90;;;;;;;8.33;100.00;93978.34;6260328;22;20178;-71
2022/09/30 04:53:08;;;;;;;1999.90;999.90;;;;;;;8.32;100.00;93985.00;6260400;22;20170;-72
2022/09/30 04:55:33;;;;;;;1999.90;999.90;;;;;;;8.30;100.00;93998.25;6260556;22;20166;-70
2022/09/30 04:57:59;;;;;;;1999.90;999.90;;;;;;;8.29;100.00;93988.56;6260531;22;20210;-70
2022/09/30 05:00:24;;;;;;;1999.90;999.90;;;;;;;8.24;100.00;94005.38;6260210;22;20171;-70
2022/09/30 05:02:50;;;;;;;1999.90;999.90;;;;;;;8.24;100.00;94010.03;6260367;22;20189;-68
2022/09/30 05:05:16;;;;;;;1999.90;999.90;;;;;;;8.23;100.00;94001.13;6260838;22;20166;-71
2022/09/30 05:07:42;;;;;;;1999.90;999.90;;;;;;;8.24;100.00;93999.94;6260526;22;20166;-69
2022/09/30 05:10:10;;;;;;;1999.90;999.90;;;;;;;8.23;100.00;93998.38;6260827;22;20167;-70
2022/09/30 05:12:36;;;;;;;1999.90;999.90;;;;;;;8.27;100.00;93985.47;6260687;22;20205;-71
2022/09/30 05:15:02;;;;;;;1999.90;999.90;;;;;;;8.28;100.00;93989.75;6259968;22;20192;-71
2022/09/30 05:17:29;;;;;;;1999.90;999.90;;;;;;;8.29;100.00;93991.28;6260159;22;20178;-70
2022/09/30 05:19:55;;;;;;;1999.90;999.90;;;;;;;8.28;100.00;93989.75;6260404;22;20167;-73
2022/09/30 05:22:22;;;;;;;1999.90;999.90;;;;;;;8.25;100.00;94011.56;6260520;22;20192;-71
2022/09/30 05:24:47;;;;;;;1999.90;999.90;;;;;;;8.22;100.00;94015.91;6260310;22;20182;-71
2022/09/30 05:27:16;;;;;;;1999.90;999.90;;;;;;;8.23;100.00;94008.53;6260494;22;20169;-71
2022/09/30 05:29:42;;;;;;;1999.90;999.90;;;;;;;8.23;100.00;94009.28;6260710;22;20167;-69
2022/09/30 05:32:08;;;;;;;1999.90;999.90;;;;;;;8.26;100.00;94024.75;6260694;22;20146;-69
2022/09/30 05:34:33;;;;;;;1999.90;999.90;;;;;;;8.30;100.00;94022.72;6260447;22;20166;-70
2022/09/30 05:36:58;;;;;;;1999.90;999.90;;;;;;;8.37;100.00;94019.06;6260652;22;20237;-71
2022/09/30 05:39:24;;;;;;;1999.90;999.90;;;;;;;8.47;100.00;94024.28;6260313;22;20175;-70
2022/09/30 05:41:49;;;;;;;1999.90;999.90;;;;;;;8.46;100.00;94025.47;6259815;22;20177;-69
2022/09/30 05:44:14;;;;;;;1999.90;999.90;;;;;;;8.49;100.00;94018.44;6260107;22;20220;-72
2022/09/30 05:46:42;;;;;;;1999.90;999.90;;;;;;;8.69;100.00;94019.88;6193617;23;20173;-71
2022/09/30 05:49:07;;;;;;;1999.90;999.90;;;;;;;8.97;100.00;94016.50;6169200;23;20220;-69
2022/09/30 05:51:33;;;;;;;1999.90;999.90;;;;;;;9.15;100.00;94016.78;6168459;23;20360;-71
2022/09/30 05:53:58;;;;;;;1999.90;999.90;;;;;;;9.26;100.00;94006.38;6168456;23;20189;-71
2022/09/30 05:56:23;;;;;;;1999.90;999.90;;;;;;;9.39;100.00;94018.13;6168742;23;20263;-71
2022/09/30 05:58:49;;;;;;;1999.90;999.90;;;;;;;9.31;100.00;94027.69;6168798;23;20185;-70
2022/09/30 06:01:15;;;;;;;1999.90;999.90;;;;;;;9.27;100.00;94032.47;6169010;23;20155;-70
2022/09/30 06:03:42;;;;;;;1999.90;999.90;;;;;;;9.35;100.00;94030.31;6168758;23;20536;-73
2022/09/30 06:06:08;;;;;;;1999.90;999.90;;;;;;;9.49;100.00;94043.56;6168910;23;20180;-71
2022/09/30 06:08:34;;;;;;;1999.90;999.90;;;;;;;9.44;100.00;94042.13;6168368;23;20174;-71
2022/09/30 06:10:59;;;;;;;1999.90;999.90;;;;;;;9.56;100.00;94040.66;6168200;23;20200;-71
2022/09/30 06:13:26;;;;;;;1999.90;999.90;;;;;;;9.64;100.00;94045.50;6168535;23;20261;-70
2022/09/30 06:15:59;;;;;;;1999.90;999.90;;;;;;;9.58;100.00;94044.47;6168379;23;20181;-70
2022/09/30 06:18:25;;;;;;;1999.90;999.90;;;;;;;9.70;100.00;94049.22;6248949;22;20181;-70
2022/09/30 06:20:52;;;;;;;1999.90;999.90;;;;;;;9.68;100.00;94057.06;6259572;22;20164;-70
2022/09/30 06:23:17;;;;;;;1999.90;999.90;;;;;;;9.73;100.00;94064.72;6259887;22;20168;-70
2022/09/30 06:25:43;;;;;;;1999.90;999.90;;;;;;;9.77;100.00;94064.63;6259663;22;20160;-70
2022/09/30 06:28:09;;;;;;;1999.90;999.90;;;;;;;9.84;100.00;94065.19;6260711;22;20500;-71
2022/09/30 06:30:34;;;;;;;1999.90;999.90;;;;;;;9.95;100.00;94071.13;6260942;22;20145;-71
2022/09/30 06:33:00;;;;;;;1999.90;999.90;;;;;;;10.10;100.00;94072.28;6261021;22;20179;-69
2022/09/30 06:35:27;;;;;;;1999.90;999.90;;;;;;;10.21;100.00;94068.50;6261320;22;20176;-70
2022/09/30 06:37:52;;;;;;;1999.90;999.90;;;;;;;10.24;100.00;94064.91;6261317;22;20187;-70
2022/09/30 06:40:20;;;;;;;1999.90;999.90;;;;;;;10.39;100.00;94071.47;6261184;22;20188;-70
2022/09/30 06:42:46;;;;;;;1999.90;999.90;;;;;;;10.71;100.00;94071.31;6260877;22;20195;-70
2022/09/30 06:45:12;;;;;;;1999.90;999.90;;;;;;;10.92;100.00;94081.59;6261104;22;20449;-70
2022/09/30 06:47:38;;;;;;;1999.90;999.90;;;;;;;11.04;100.00;94083.56;6261117;22;20168;-69
2022/09/30 06:50:04;;;;;;;1999.90;999.90;;;;;;;11.17;100.00;94092.50;6260843;22;20225;-70
2022/09/30 06:52:29;;;;;;;1999.90;999.90;;;;;;;11.60;100.00;94095.38;6261078;22;20169;-69
2022/09/30 06:54:57;;;;;;;1999.90;999.90;;;;;;;11.73;100.00;94104.38;6260765;22;20168;-71
2022/09/30 06:57:26;;;;;;;1999.90;999.90;;;;;;;11.93;100.00;94113.03;6260801;22;20182;-71
2022/09/30 06:59:53;;;;;;;1999.90;999.90;;;;;;;11.94;100.00;94122.78;6261753;22;20143;-71
2022/09/30 07:02:19;;;;;;;1999.90;999.90;;;;;;;12.18;100.00;94121.16;6261572;22;20177;-71
2022/09/30 07:04:44;;;;;;;1999.90;999.90;;;;;;;12.24;100.00;94133.84;6261335;22;20385;-72
2022/09/30 07:07:11;;;;;;;1999.90;999.90;;;;;;;12.23;100.00;94134.28;6260782;22;20230;-71
2022/09/30 07:09:36;;;;;;;1999.90;999.90;;;;;;;12.27;100.00;94140.38;6260759;22;20195;-72
2022/09/30 07:12:02;;;;;;;1999.90;999.90;;;;;;;12.43;100.00;94134.75;6260996;22;20171;-71
2022/09/30 07:14:27;;;;;;;1999.90;999.90;;;;;;;12.28;100.00;94120.78;6286350;22;20221;-72
2022/09/30 07:16:52;;;;;;;1999.90;999.90;;;;;;;12.40;100.00;94108.25;6260819;22;20195;-71
2022/09/30 07:19:21;;;;;;;1999.90;999.90;;;;;;;12.19;100.00;94103.53;6260867;22;20168;-72
2022/09/30 07:21:48;;;;;;;1999.90;999.90;;;;;;;12.24;100.00;94089.28;6260811;22;20175;-72
2022/09/30 07:24:14;;;;;;;1999.90;999.90;;;;;;;12.37;100.00;94081.75;6260968;22;20243;-69
2022/09/30 07:26:40;;;;;;;1999.90;999.90;;;;;;;12.49;100.00;94086.41;6261077;22;20171;-71
2022/09/30 07:29:06;;;;;;;1999.90;999.90;;;;;;;12.70;100.00;94080.91;6261496;22;20156;-71
2022/09/30 07:31:32;;;;;;;1999.90;999.90;;;;;;;12.89;100.00;94068.06;6261008;22;20172;-70
2022/09/30 07:33:58;;;;;;;1999.90;999.90;;;;;;;12.80;100.00;94052.34;6261240;22;20224;-71
2022/09/30 07:36:28;;;;;;;1999.90;999.90;;;;;;;13.09;100.00;94039.09;6261348;22;20173;-70
2022/09/30 07:38:55;;;;;;;1999.90;999.90;;;;;;;13.42;100.00;94033.06;6260809;22;20176;-71
2022/09/30 07:41:26;;;;;;;1999.90;999.90;;;;;;;13.79;100.00;94016.22;6260760;22;20168;-72
2022/09/30 07:43:55;;;;;;;1999.90;999.90;;;;;;;14.59;100.00;93984.38;6260837;22;20171;-70
2022/09/30 07:46:24;;;;;;;1999.90;999.90;;;;;;;16.18;100.00;93892.66;6260910;22;20175;-72
2022/09/30 07:48:55;;;;;;;1999.90;999.90;;;;;;;16.25;100.00;93802.13;6260603;22;20169;-73
2022/09/30 07:51:23;;;;;;;1999.90;999.90;;;;;;;15.46;100.00;93731.78;6261378;22;20188;-72
2022/09/30 07:53:53;;;;;;;1999.90;999.90;;;;;;;15.44;100.00;93761.75;6260421;22;20221;-71
2022/09/30 07:56:19;;;;;;;1999.90;999.90;;;;;;;15.02;100.00;93769.47;6261207;22;20168;-71
2022/09/30 07:58:45;;;;;;;1999.90;999.90;;;;;;;15.00;100.00;93821.38;6260386;22;20179;-71
2022/09/30 08:01:11;;;;;;;1999.90;999.90;;;;;;;15.44;100.00;93822.28;6261097;22;20188;-71
2022/09/30 08:03:40;;;;;;;1999.90;999.90;;;;;;;15.37;100.00;93806.13;6260999;22;20174;-72
2022/09/30 08:06:08;;;;;;;1999.90;999.90;;;;;;;15.56;100.00;93807.47;6260440;22;20219;-71
2022/09/30 08:08:34;;;;;;;1999.90;999.90;;;;;;;15.76;100.00;93804.84;6260424;22;20165;-71
2022/09/30 08:11:00;;;;;;;1999.90;999.90;;;;;;;15.72;100.00;93743.72;6260428;22;20190;-72
2022/09/30 08:13:25;;;;;;;1999.90;999.90;;;;;;;16.16;100.00;93755.41;6260758;22;20170;-72
2022/09/30 08:15:50;;;;;;;1999.90;999.90;;;;;;;15.87;100.00;93705.91;6260471;22;20169;-72
2022/09/30 08:18:16;;;;;;;1999.90;999.90;;;;;;;16.21;100.00;93702.38;6261387;22;20176;-71
2022/09/30 08:20:41;;;;;;;1999.90;999.90;;;;;;;16.74;100.00;93693.03;6285924;22;20169;-71
2022/09/30 08:23:07;;;;;;;1999.90;999.90;;;;;;;17.58;100.00;93649.25;6260851;22;20155;-71
2022/09/30 08:25:32;;;;;;;1999.90;999.90;;;;;;;17.75;100.00;93575.56;6261318;22;20219;-71
2022/09/30 08:27:57;;;;;;;1999.90;999.90;;;;;;;17.55;100.00;93589.50;6260612;22;20187;-71
2022/09/30 08:30:23;;;;;;;1999.90;999.90;;;;;;;17.43;100.00;93474.75;6261014;22;20184;-71
2022/09/30 08:32:48;;;;;;;1999.90;999.90;;;;;;;16.90;100.00;93176.84;6286779;22;20195;-72
2022/09/30 08:35:13;;;;;;;1999.90;999.90;;;;;;;16.66;100.00;93052.47;6260657;22;20172;-72
2022/09/30 08:37:39;;;;;;;1999.90;999.90;;;;;;;16.15;100.00;93103.91;6260555;22;20172;-71
2022/09/30 08:40:05;;;;;;;1999.90;999.90;;;;;;;15.46;100.00;93099.03;6260584;22;20191;-72
2022/09/30 08:42:46;;;;;;;1999.90;999.90;;;;;;;14.95;100.00;92950.69;6260679;22;20160;-72
2022/09/30 08:45:25;;;;;;;1999.90;999.90;;;;;;;14.50;100.00;92821.78;6260720;22;20231;-72
2022/09/30 08:48:13;;;;;;;1999.90;999.90;;;;;;;14.21;100.00;92728.75;6260955;22;20163;-72
2022/09/30 08:51:19;;;;;;;1999.90;999.90;;;;;;;13.88;100.00;92641.47;6285247;22;20172;-72
2022/09/30 08:53:46;;;;;;;1999.90;999.90;;;;;;;14.12;100.00;92663.81;6227755;22;20243;-72
2022/09/30 08:56:22;;;;;;;1999.90;999.90;;;;;;;13.93;100.00;92767.00;6260394;22;20161;-72
2022/09/30 08:58:50;;;;;;;1999.90;999.90;;;;;;;14.26;100.00;92868.81;6261026;22;20179;-73
2022/09/30 09:01:25;;;;;;;1999.90;999.90;;;;;;;14.04;100.00;92879.56;6260296;22;20226;-73
2022/09/30 09:03:50;;;;;;;1999.90;999.90;;;;;;;13.80;100.00;92887.34;6286660;22;20175;-73
2022/09/30 09:06:40;;;;;;;1999.90;999.90;;;;;;;13.69;100.00;92935.88;6260558;22;20181;-73
2022/09/30 09:09:24;;;;;;;1999.90;999.90;;;;;;;13.59;100.00;92945.47;6286162;22;20172;-72
2022/09/30 09:12:08;;;;;;;1999.90;999.90;;;;;;;14.16;100.00;92985.47;6286111;22;20176;-72
2022/09/30 09:14:43;;;;;;;1999.90;999.90;;;;;;;14.80;100.00;92944.59;6286217;22;20191;-73
2022/09/30 09:17:32;;;;;;;1999.90;999.90;;;;;;;15.20;100.00;92864.59;6286470;22;20176;-71
2022/09/30 09:20:17;;;;;;;1999.90;999.90;;;;;;;15.45;100.00;92794.91;6260156;22;20176;-71
2022/09/30 09:22:44;;;;;;;1999.90;999.90;;;;;;;15.62;100.00;92754.44;6260943;22;20168;-72
2022/09/30 09:25:19;;;;;;;1999.90;999.90;;;;;;;15.48;100.00;92826.94;6260126;22;20182;-72
2022/09/30 09:27:44;;;;;;;1999.90;999.90;;;;;;;15.37;100.00;92928.69;6260197;22;20175;-71
2022/09/30 09:30:13;;;;;;;1999.90;999.90;;;;;;;14.82;100.00;92944.84;6286085;22;20189;-71
2022/09/30 09:32:39;;;;;;;1999.90;999.90;;;;;;;14.37;100.00;92912.06;6260801;22;20205;-71
2022/09/30 09:35:32;;;;;;;1999.90;999.90;;;;;;;14.13;100.00;92881.41;6260127;22;20157;-75
2022/09/30 09:38:44;;;;;;;1999.90;999.90;;;;;;;14.34;100.00;92825.94;6260160;22;20180;-71
2022/09/30 09:41:11;;;;;;;1999.90;999.90;;;;;;;14.36;100.00;92804.22;6281564;22;20180;-70
2022/09/30 09:43:57;;;;;;;1999.90;999.90;;;;;;;14.40;100.00;92839.69;6286340;22;20186;-70
2022/09/30 09:46:38;;;;;;;1999.90;999.90;;;;;;;14.75;100.00;92843.63;6260776;22;20148;-71
2022/09/30 09:49:23;;;;;;;1999.90;999.90;;;;;;;15.02;100.00;92900.00;6260518;22;20236;-71
2022/09/30 09:51:48;;;;;;;1999.90;999.90;;;;;;;14.84;100.00;92914.13;6260256;22;20169;-71
2022/09/30 09:54:17;;;;;;;1999.90;999.90;;;;;;;14.90;100.00;92860.69;6285777;22;20172;-71
2022/09/30 09:56:43;;;;;;;1999.90;999.90;;;;;;;14.97;100.00;92849.25;6259778;22;20169;-71
2022/09/30 09:59:09;;;;;;;1999.90;999.90;;;;;;;15.29;100.00;92855.34;6260595;22;20252;-71
2022/09/30 10:01:38;;;;;;;1999.90;999.90;;;;;;;15.05;100.00;92879.78;6285129;22;20168;-71
2022/09/30 10:04:29;;;;;;;1999.90;999.90;;;;;;;14.54;100.00;92894.47;6260632;22;20177;-71
2022/09/30 10:06:59;;;;;;;1999.90;999.90;;;;;;;14.39;100.00;92805.97;6259887;22;20195;-71
2022/09/30 10:09:29;;;;;;;1999.90;999.90;;;;;;;14.16;100.00;92809.06;6260272;22;20473;-71
2022/09/30 10:12:06;;;;;;;1999.90;999.90;;;;;;;13.79;100.00;92828.22;6285684;22;20176;-71
2022/09/30 10:14:46;;;;;;;1999.90;999.90;;;;;;;14.66;100.00;92766.16;6285171;22;20169;-71
2022/09/30 10:17:21;;;;;;;1999.90;999.90;;;;;;;14.38;100.00;92793.50;6285169;22;20184;-71
2022/09/30 10:19:52;;;;;;;1999.90;999.90;;;;;;;14.87;100.00;92751.78;6259846;22;20183;-72
2022/09/30 10:22:23;;;;;;;1999.90;999.90;;;;;;;15.16;100.00;92800.81;6259505;22;20172;-72
2022/09/30 10:24:49;;;;;;;1999.90;999.90;;;;;;;15.24;100.00;92900.84;6259934;22;20231;-72
2022/09/30 10:27:28;;;;;;;1999.90;999.90;;;;;;;15.10;100.00;92956.78;6260289;22;20230;-71
2022/09/30 10:29:54;;;;;;;1999.90;999.90;;;;;;;15.94;100.00;92940.13;6259324;22;20199;-72
2022/09/30 10:32:21;;;;;;;1999.90;999.90;;;;;;;16.69;100.00;93095.56;6259349;22;20168;-71
2022/09/30 10:34:55;;;;;;;1999.90;999.90;;;;;;;17.56;100.00;93350.84;6259605;22;20169;-71
2022/09/30 10:37:23;;;;;;;1999.90;999.90;;;;;;;18.38;100.00;93566.59;6260149;22;20179;-71
2022/09/30 10:40:05;;;;;;;1999.90;999.90;;;;;;;18.28;100.00;93672.31;6260091;22;20172;-72
2022/09/30 10:42:37;;;;;;;1999.90;999.90;;;;;;;18.96;100.00;93737.28;6259305;22;20187;-72
2022/09/30 10:45:19;;;;;;;1999.90;999.90;;;;;;;19.08;100.00;93577.53;6259751;22;20214;-72
2022/09/30 10:47:49;;;;;;;1999.90;999.90;;;;;;;18.64;100.00;93954.34;6259940;22;20168;-73
2022/09/30 10:50:19;;;;;;;1999.90;999.90;;;;;;;17.80;100.00;94218.34;6259464;22;20239;-73
2022/09/30 10:52:59;;;;;;;1999.90;999.90;;;;;;;17.13;100.00;94232.22;6259569;22;20164;-69
2022/09/30 10:55:28;;;;;;;1999.90;999.90;;;;;;;16.70;100.00;94183.25;6259863;22;20176;-72
2022/09/30 10:57:55;;;;;;;1999.90;999.90;;;;;;;15.42;100.00;94176.91;6259482;22;20188;-73
2022/09/30 11:00:24;;;;;;;1999.90;999.90;;;;;;;15.48;100.00;94109.00;6259716;22;20198;-73
2022/09/30 11:03:22;;;;;;;1999.90;999.90;;;;;;;14.87;100.00;94101.28;6259381;22;20165;-72
2022/09/30 11:05:49;;;;;;;1999.90;999.90;;;;;;;14.86;100.00;94044.75;6259868;22;20192;-73
2022/09/30 11:08:35;;;;;;;1999.90;999.90;;;;;;;14.85;100.00;93993.75;6259260;22;20168;-70
2022/09/30 11:11:09;;;;;;;1999.90;999.90;;;;;;;14.58;100.00;93936.16;6260029;22;20173;-70